createdAt,value
2019-01-23T00:00:30.928Z,11.90
2019-01-23T00:03:00.263Z,12.77
2019-01-23T00:05:28.472Z,13.30
2019-01-23T00:07:57.328Z,13.80
2019-01-23T00:10:25.961Z,14.00
2019-01-23T00:12:54.031Z,13.23
2019-01-23T00:15:22.438Z,13.27
2019-01-23T00:17:50.904Z,12.60
2019-01-23T00:20:18.742Z,13.90
2019-01-23T00:22:46.421Z,12.03
2019-01-23T00:25:14.461Z,13.57
2019-01-23T00:27:42.432Z,13.50
2019-01-23T00:30:10.410Z,12.87
2019-01-23T00:32:39.655Z,13.60
2019-01-23T00:35:07.838Z,12.57
2019-01-23T00:37:35.634Z,12.60
2019-01-23T00:40:04.926Z,13.60
2019-01-23T00:42:33.534Z,11.73
2019-01-23T00:45:01.659Z,13.03
2019-01-23T00:47:29.600Z,12.43
2019-01-23T00:49:57.958Z,13.60
2019-01-23T00:52:26.110Z,13.83
2019-01-23T00:54:54.091Z,13.63
2019-01-23T00:57:21.967Z,13.37
2019-01-23T00:59:49.882Z,13.50
2019-01-23T01:02:17.691Z,13.37
2019-01-23T01:04:45.948Z,13.97
2019-01-23T01:07:14.125Z,14.50
2019-01-23T01:09:41.955Z,13.53
2019-01-23T01:12:09.784Z,13.17
2019-01-23T01:14:37.705Z,14.33
2019-01-23T01:17:05.780Z,14.20
2019-01-23T01:19:34.532Z,11.73
2019-01-23T01:22:02.745Z,12.53
2019-01-23T01:24:30.613Z,14.07
2019-01-23T01:26:59.001Z,13.57
2019-01-23T01:29:27.205Z,13.10
2019-01-23T01:31:55.318Z,13.90
2019-01-23T01:34:24.834Z,13.57
2019-01-23T01:36:52.994Z,13.60
2019-01-23T01:39:21.814Z,13.97
2019-01-23T01:41:49.605Z,13.47
2019-01-23T01:44:17.596Z,13.40
2019-01-23T01:46:45.523Z,13.00
2019-01-23T01:49:13.754Z,14.43
2019-01-23T01:51:42.683Z,13.97
2019-01-23T01:54:10.636Z,14.37
2019-01-23T01:56:39.799Z,11.60
2019-01-23T01:59:07.795Z,13.10
2019-01-23T02:01:36.155Z,14.13
2019-01-23T02:04:04.536Z,13.87
2019-01-23T02:06:32.430Z,14.27
2019-01-23T02:09:00.884Z,11.00
2019-01-23T02:11:29.744Z,12.50
2019-01-23T02:13:58.332Z,10.17
2019-01-23T02:16:26.739Z,13.37
2019-01-23T02:18:55.812Z,13.60
2019-01-23T02:21:24.018Z,13.93
2019-01-23T02:23:52.777Z,14.13
2019-01-23T02:26:21.067Z,13.23
2019-01-23T02:28:48.884Z,13.57
2019-01-23T02:31:17.023Z,14.57
2019-01-23T02:33:45.263Z,12.97
2019-01-23T02:36:14.022Z,9.80
2019-01-23T02:38:42.304Z,13.23
2019-01-23T02:41:10.202Z,13.53
2019-01-23T02:43:38.012Z,13.43
2019-01-23T02:46:06.319Z,10.20
2019-01-23T02:48:35.099Z,11.30
2019-01-23T02:51:03.474Z,12.43
2019-01-23T02:53:32.052Z,14.77
2019-01-23T02:56:00.747Z,14.17
2019-01-23T02:58:47.335Z,14.60
2019-01-23T03:01:15.617Z,13.87
2019-01-23T03:03:44.811Z,14.70
2019-01-23T03:06:12.786Z,12.90
2019-01-23T03:08:41.352Z,14.60
2019-01-23T03:11:10.100Z,14.63
2019-01-23T03:13:38.419Z,15.07
2019-01-23T03:16:06.897Z,15.10
2019-01-23T03:18:35.384Z,13.03
2019-01-23T03:21:03.956Z,15.43
2019-01-23T03:23:32.425Z,14.93
2019-01-23T03:26:00.745Z,15.77
2019-01-23T03:28:29.386Z,14.63
2019-01-23T03:30:57.793Z,15.27
2019-01-23T03:33:26.153Z,15.40
2019-01-23T03:35:54.341Z,14.97
2019-01-23T03:38:22.181Z,14.80
2019-01-23T03:40:49.958Z,14.40
2019-01-23T03:43:18.267Z,15.80
2019-01-23T03:45:46.712Z,14.60
2019-01-23T03:48:15.182Z,14.87
2019-01-23T03:50:43.016Z,15.50
2019-01-23T03:53:11.224Z,14.97
2019-01-23T03:55:39.192Z,14.83
2019-01-23T03:58:07.660Z,14.43
2019-01-23T04:00:36.448Z,14.90
2019-01-23T04:03:04.939Z,14.63
2019-01-23T04:05:33.671Z,15.43
2019-01-23T04:08:02.095Z,14.23
2019-01-23T04:10:30.778Z,14.83
2019-01-23T04:12:59.528Z,15.17
2019-01-23T04:15:27.840Z,15.53
2019-01-23T04:17:57.312Z,15.27
2019-01-23T04:20:25.813Z,14.33
2019-01-23T04:22:54.510Z,14.73
2019-01-23T04:25:23.096Z,14.47
2019-01-23T04:27:52.258Z,14.97
2019-01-23T04:30:22.969Z,15.47
2019-01-23T04:32:51.586Z,15.03
2019-01-23T04:35:19.978Z,15.97
2019-01-23T04:37:48.766Z,16.10
2019-01-23T04:40:17.558Z,16.17
2019-01-23T04:42:45.910Z,14.77
2019-01-23T04:45:14.566Z,15.57
2019-01-23T04:47:42.323Z,16.93
2019-01-23T04:50:12.154Z,16.33
2019-01-23T04:52:52.444Z,15.13
2019-01-23T04:55:21.015Z,15.33
2019-01-23T04:57:50.370Z,16.10
2019-01-23T05:00:21.088Z,15.60
2019-01-23T05:02:50.492Z,15.87
2019-01-23T05:05:19.235Z,15.30
2019-01-23T05:07:47.321Z,15.07
2019-01-23T05:10:15.134Z,16.10
2019-01-23T05:12:43.429Z,15.13
2019-01-23T05:15:11.802Z,15.93
2019-01-23T05:17:40.105Z,16.63
2019-01-23T05:20:09.417Z,16.50
2019-01-23T05:22:37.437Z,15.07
2019-01-23T05:25:06.270Z,15.50
2019-01-23T05:27:35.030Z,15.20
2019-01-23T05:30:04.318Z,15.47
2019-01-23T05:32:32.449Z,15.47
2019-01-23T05:35:01.697Z,15.33
2019-01-23T05:37:30.274Z,15.73
2019-01-23T05:39:58.792Z,15.93
2019-01-23T05:42:27.959Z,14.83
2019-01-23T05:44:56.441Z,16.00
2019-01-23T05:47:24.817Z,16.17
2019-01-23T05:49:53.391Z,16.30
2019-01-23T05:52:22.195Z,15.97
2019-01-23T05:54:51.166Z,14.83
2019-01-23T05:57:19.829Z,16.63
2019-01-23T05:59:49.423Z,15.50
2019-01-23T06:02:18.337Z,16.97
2019-01-23T06:04:47.690Z,15.73
2019-01-23T06:07:16.287Z,15.43
2019-01-23T06:09:45.440Z,14.67
2019-01-23T06:12:13.357Z,15.43
2019-01-23T06:14:41.868Z,14.70
2019-01-23T06:17:11.143Z,15.60
2019-01-23T06:19:39.635Z,16.13
2019-01-23T06:22:08.116Z,14.53
2019-01-23T06:24:36.038Z,16.30
2019-01-23T06:27:04.407Z,16.07
2019-01-23T06:29:32.107Z,16.43
2019-01-23T06:32:00.822Z,15.50
2019-01-23T06:34:29.302Z,16.17
2019-01-23T06:36:57.123Z,17.07
2019-01-23T06:39:26.265Z,17.07
2019-01-23T06:41:54.754Z,17.23
2019-01-23T06:44:23.019Z,16.47
2019-01-23T06:47:09.995Z,16.47
2019-01-23T06:49:38.391Z,15.77
2019-01-23T06:52:06.870Z,16.50
2019-01-23T06:54:34.680Z,15.73
2019-01-23T06:57:02.528Z,16.67
2019-01-23T06:59:30.721Z,15.63
2019-01-23T07:01:58.931Z,16.10
2019-01-23T07:04:27.920Z,16.80
2019-01-23T07:06:56.839Z,17.17
2019-01-23T07:09:24.870Z,16.43
2019-01-23T07:11:53.257Z,16.30
2019-01-23T07:14:21.229Z,17.10
2019-01-23T07:16:49.921Z,16.60
2019-01-23T07:19:18.863Z,15.87
2019-01-23T07:21:47.060Z,15.97
2019-01-23T07:24:15.566Z,15.73
2019-01-23T07:26:44.773Z,16.77
2019-01-23T07:29:13.139Z,16.10
2019-01-23T07:31:41.207Z,17.33
2019-01-23T07:34:09.683Z,16.40
2019-01-23T07:36:37.864Z,16.20
2019-01-23T07:39:09.889Z,15.10
2019-01-23T07:41:38.717Z,16.33
2019-01-23T07:44:06.979Z,16.83
2019-01-23T07:46:34.828Z,16.40
2019-01-23T07:49:02.619Z,17.20
2019-01-23T07:51:30.515Z,16.07
2019-01-23T07:53:58.646Z,16.43
2019-01-23T07:56:27.567Z,16.40
2019-01-23T07:58:55.326Z,15.00
2019-01-23T08:01:23.471Z,15.70
2019-01-23T08:03:51.652Z,15.87
2019-01-23T08:06:20.045Z,16.07
2019-01-23T08:08:48.182Z,16.20
2019-01-23T08:11:16.628Z,15.67
2019-01-23T08:13:45.585Z,15.43
2019-01-23T08:16:14.495Z,16.30
2019-01-23T08:18:42.935Z,15.93
2019-01-23T08:21:11.607Z,16.70
2019-01-23T08:23:39.766Z,15.83
2019-01-23T08:26:08.117Z,15.70
2019-01-23T08:28:36.016Z,16.83
2019-01-23T08:31:04.627Z,17.10
2019-01-23T08:33:33.175Z,16.37
2019-01-23T08:36:01.254Z,17.00
2019-01-23T08:38:29.468Z,16.30
2019-01-23T08:40:58.471Z,16.53
2019-01-23T08:43:26.991Z,13.37
2019-01-23T08:45:55.181Z,11.90
2019-01-23T08:48:23.392Z,17.83
2019-01-23T08:50:51.200Z,17.50
2019-01-23T08:53:19.497Z,16.70
2019-01-23T08:55:53.215Z,16.40
2019-01-23T08:58:17.463Z,18.53
2019-01-23T09:00:46.208Z,17.60
2019-01-23T09:03:14.618Z,18.63
2019-01-23T09:05:42.774Z,19.33
2019-01-23T09:08:10.858Z,20.07
2019-01-23T09:10:38.641Z,19.57
2019-01-23T09:13:06.830Z,19.00
2019-01-23T09:15:34.665Z,19.37
2019-01-23T09:18:03.396Z,19.73
2019-01-23T09:20:31.812Z,16.87
2019-01-23T09:22:59.771Z,19.30
2019-01-23T09:25:27.664Z,19.63
2019-01-23T09:27:55.975Z,19.23
2019-01-23T09:30:37.567Z,18.50
2019-01-23T09:34:04.572Z,19.20
2019-01-23T09:37:48.731Z,19.20
2019-01-23T09:40:45.286Z,18.83
2019-01-23T09:44:19.960Z,17.27
2019-01-23T09:47:21.569Z,18.03
2019-01-23T09:50:17.424Z,19.30
2019-01-23T09:53:12.996Z,18.57
2019-01-23T09:55:41.190Z,17.80
2019-01-23T09:58:10.428Z,19.13
2019-01-23T10:00:38.727Z,20.33
2019-01-23T10:03:08.263Z,20.83
2019-01-23T10:05:36.401Z,18.87
2019-01-23T10:08:05.853Z,19.87
2019-01-23T10:10:33.980Z,19.73
2019-01-23T10:13:01.771Z,19.73
2019-01-23T10:15:38.532Z,20.60
2019-01-23T10:18:06.514Z,20.93
2019-01-23T10:20:35.166Z,22.13
2019-01-23T10:23:03.358Z,21.00
2019-01-23T10:25:31.212Z,22.57
2019-01-23T10:27:59.671Z,22.47
2019-01-23T10:30:27.508Z,22.83
2019-01-23T10:32:55.967Z,21.20
2019-01-23T10:35:23.886Z,19.23
2019-01-23T10:37:52.992Z,19.17
2019-01-23T10:40:21.133Z,21.23
2019-01-23T10:42:49.927Z,20.30
2019-01-23T10:45:18.112Z,21.47
2019-01-23T10:47:46.386Z,20.83
2019-01-23T10:50:14.568Z,20.03
2019-01-23T10:52:43.133Z,21.07
2019-01-23T10:55:11.394Z,20.53
2019-01-23T10:57:39.769Z,21.80
2019-01-23T11:00:13.133Z,22.40
2019-01-23T11:02:40.977Z,22.83
2019-01-23T11:05:11.735Z,22.53
2019-01-23T11:07:40.050Z,21.90
2019-01-23T11:10:12.622Z,22.23
2019-01-23T11:12:41.312Z,23.10
2019-01-23T11:15:09.890Z,22.40
2019-01-23T11:17:37.819Z,23.03
2019-01-23T11:20:10.100Z,22.40
2019-01-23T11:22:40.747Z,22.10
2019-01-23T11:25:09.946Z,22.27
2019-01-23T11:27:37.890Z,21.83
2019-01-23T11:30:11.057Z,21.17
2019-01-23T11:32:41.395Z,20.40
2019-01-23T11:35:10.100Z,20.53
2019-01-23T11:37:38.855Z,20.40
2019-01-23T11:40:13.272Z,20.43
2019-01-23T11:42:41.204Z,20.00
2019-01-23T11:45:09.556Z,19.40
2019-01-23T11:47:37.608Z,18.57
2019-01-23T11:50:08.224Z,21.47
2019-01-23T11:52:36.012Z,20.17
2019-01-23T11:55:04.266Z,20.90
2019-01-23T11:57:33.021Z,19.47
2019-01-23T12:00:00.911Z,18.93
2019-01-23T12:02:30.826Z,14.80
2019-01-23T12:04:58.820Z,18.70
2019-01-23T12:07:27.378Z,19.20
2019-01-23T12:09:55.773Z,18.17
2019-01-23T12:12:24.447Z,17.80
2019-01-23T12:14:53.166Z,20.30
2019-01-23T12:17:21.357Z,18.63
2019-01-23T12:19:49.562Z,15.60
2019-01-23T12:22:17.437Z,19.07
2019-01-23T12:24:45.235Z,19.50
2019-01-23T12:27:13.313Z,19.23
2019-01-23T12:29:41.252Z,18.67
2019-01-23T12:32:09.431Z,18.03
2019-01-23T12:34:37.492Z,19.20
2019-01-23T12:37:06.064Z,18.97
2019-01-23T12:39:34.549Z,19.33
2019-01-23T12:42:02.362Z,18.93
2019-01-23T12:44:30.753Z,19.20
2019-01-23T12:46:59.048Z,18.70
2019-01-23T12:49:28.250Z,18.27
2019-01-23T12:51:56.332Z,18.67
2019-01-23T12:54:25.352Z,18.70
2019-01-23T12:56:53.597Z,18.50
2019-01-23T12:59:22.386Z,17.93
2019-01-23T13:01:50.663Z,18.67
2019-01-23T13:04:18.466Z,18.07
2019-01-23T13:06:46.753Z,18.53
2019-01-23T13:09:14.858Z,18.70
2019-01-23T13:11:43.335Z,18.53
2019-01-23T13:14:11.812Z,18.37
2019-01-23T13:16:39.914Z,18.10
2019-01-23T13:19:08.831Z,17.70
2019-01-23T13:21:37.083Z,17.70
2019-01-23T13:24:05.458Z,17.73
2019-01-23T13:26:33.925Z,17.87
2019-01-23T13:29:02.510Z,17.00
2019-01-23T13:31:30.620Z,16.87
2019-01-23T13:33:59.040Z,17.20
2019-01-23T13:36:27.135Z,17.43
2019-01-23T13:38:55.897Z,17.17
2019-01-23T13:41:24.225Z,17.47
2019-01-23T13:43:53.777Z,18.30
2019-01-23T13:46:22.364Z,17.83
2019-01-23T13:48:50.337Z,17.50
2019-01-23T13:51:18.160Z,16.60
2019-01-23T13:53:46.092Z,17.83
2019-01-23T13:56:14.459Z,17.37
2019-01-23T13:58:43.521Z,17.67
2019-01-23T14:01:12.818Z,17.73
2019-01-23T14:03:41.705Z,18.60
2019-01-23T14:06:11.341Z,17.60
2019-01-23T14:08:39.927Z,16.87
2019-01-23T14:11:08.510Z,17.87
2019-01-23T14:13:36.771Z,17.83
2019-01-23T14:16:05.496Z,17.47
2019-01-23T14:18:33.719Z,17.63
2019-01-23T14:21:02.383Z,16.60
2019-01-23T14:23:32.552Z,17.13
2019-01-23T14:26:01.847Z,16.90
2019-01-23T14:28:32.389Z,16.67
2019-01-23T14:31:02.102Z,17.30
2019-01-23T14:33:30.792Z,15.60
2019-01-23T14:35:59.286Z,16.80
2019-01-23T14:38:29.191Z,17.00
2019-01-23T14:40:58.315Z,15.43
2019-01-23T14:43:27.284Z,15.93
2019-01-23T14:45:56.793Z,16.60
2019-01-23T14:48:26.204Z,15.93
2019-01-23T14:50:55.973Z,15.57
2019-01-23T14:53:24.582Z,15.00
2019-01-23T14:55:53.463Z,14.60
2019-01-23T14:58:21.939Z,15.20
2019-01-23T15:00:50.921Z,15.40
2019-01-23T15:03:20.407Z,14.87
2019-01-23T15:05:49.473Z,16.40
2019-01-23T15:08:18.361Z,15.47
2019-01-23T15:10:47.813Z,15.07
2019-01-23T15:13:17.058Z,15.33
2019-01-23T15:15:46.464Z,14.90
2019-01-23T15:18:20.715Z,15.63
2019-01-23T15:20:52.770Z,14.80
2019-01-23T15:23:21.542Z,14.93
2019-01-23T15:25:51.153Z,15.50
2019-01-23T15:28:21.863Z,15.40
2019-01-23T15:30:50.963Z,14.57
2019-01-23T15:33:21.058Z,15.07
2019-01-23T15:35:50.415Z,15.27
2019-01-23T15:38:19.907Z,15.47
2019-01-23T15:40:49.214Z,14.77
2019-01-23T15:43:19.276Z,14.73
2019-01-23T15:45:49.306Z,13.60
2019-01-23T15:48:18.971Z,13.70
2019-01-23T15:50:50.541Z,13.77
2019-01-23T15:53:20.737Z,13.50
2019-01-23T15:55:50.866Z,14.47
2019-01-23T15:58:20.593Z,14.73
2019-01-23T16:00:50.782Z,16.10
2019-01-23T16:03:19.878Z,15.43
2019-01-23T16:05:49.258Z,16.63
2019-01-23T16:08:19.109Z,16.93
2019-01-23T16:10:50.098Z,16.93
2019-01-23T16:13:19.235Z,16.87
2019-01-23T16:15:50.610Z,17.47
2019-01-23T16:18:20.463Z,18.97
2019-01-23T16:20:50.613Z,17.70
2019-01-23T16:23:20.066Z,18.23
2019-01-23T16:25:51.021Z,18.20
2019-01-23T16:28:20.509Z,19.30
2019-01-23T16:30:49.909Z,17.77
2019-01-23T16:33:19.927Z,18.03
2019-01-23T16:35:50.079Z,19.03
2019-01-23T16:38:21.745Z,18.60
2019-01-23T16:40:51.274Z,18.37
2019-01-23T16:43:21.562Z,18.07
2019-01-23T16:45:51.987Z,18.47
2019-01-23T16:48:21.565Z,18.23
2019-01-23T16:50:52.410Z,19.20
2019-01-23T16:53:24.345Z,18.63
2019-01-23T16:55:55.273Z,19.50
2019-01-23T16:58:27.027Z,18.90
2019-01-23T17:00:57.137Z,18.37
2019-01-23T17:03:26.778Z,18.30
2019-01-23T17:05:57.058Z,18.27
2019-01-23T17:08:26.605Z,19.10
2019-01-23T17:10:56.690Z,18.97
2019-01-23T17:13:26.791Z,18.83
2019-01-23T17:15:56.778Z,19.53
2019-01-23T17:18:27.645Z,18.47
2019-01-23T17:20:57.196Z,18.37
2019-01-23T17:23:27.799Z,19.30
2019-01-23T17:25:58.768Z,19.93
2019-01-23T17:28:30.071Z,20.03
2019-01-23T17:31:05.676Z,20.57
2019-01-23T17:33:37.644Z,20.13
2019-01-23T17:36:07.644Z,20.17
2019-01-23T17:38:37.412Z,21.33
2019-01-23T17:41:07.262Z,21.03
2019-01-23T17:43:38.888Z,19.03
2019-01-23T17:46:08.798Z,19.93
2019-01-23T17:48:39.770Z,21.70
2019-01-23T17:51:09.638Z,21.03
2019-01-23T17:53:40.229Z,19.80
2019-01-23T17:56:10.219Z,21.60
2019-01-23T17:58:40.366Z,21.77
2019-01-23T18:01:11.087Z,21.27
2019-01-23T18:03:41.766Z,22.27
2019-01-23T18:06:13.384Z,21.60
2019-01-23T18:08:44.076Z,21.93
2019-01-23T18:11:14.157Z,20.07
2019-01-23T18:13:46.794Z,20.90
2019-01-23T18:16:17.165Z,20.87
2019-01-23T18:18:48.037Z,21.27
2019-01-23T18:21:17.922Z,20.60
2019-01-23T18:23:48.625Z,20.57
2019-01-23T18:26:18.805Z,20.00
2019-01-23T18:28:49.285Z,19.67
2019-01-23T18:31:44.917Z,18.53
2019-01-23T18:35:39.029Z,18.87
2019-01-23T18:38:39.928Z,18.20
2019-01-23T18:42:44.668Z,18.73
2019-01-23T18:45:38.329Z,18.10
2019-01-23T18:48:56.982Z,18.97
2019-01-23T18:51:43.745Z,19.03
2019-01-23T18:54:14.177Z,19.37
2019-01-23T18:56:46.000Z,18.57
2019-01-23T18:59:17.624Z,18.03
2019-01-23T19:01:52.135Z,19.13
2019-01-23T19:04:22.978Z,20.47
2019-01-23T19:06:55.277Z,17.37
2019-01-23T19:09:27.722Z,18.77
2019-01-23T19:11:58.286Z,18.30
2019-01-23T19:14:29.091Z,18.77
2019-01-23T19:17:00.840Z,20.00
2019-01-23T19:19:32.123Z,19.27
2019-01-23T19:22:02.459Z,18.53
2019-01-23T19:24:34.604Z,19.93
2019-01-23T19:27:07.149Z,19.50
2019-01-23T19:29:37.868Z,18.13
2019-01-23T19:32:08.646Z,18.53
2019-01-23T19:34:39.681Z,19.00
2019-01-23T19:37:10.648Z,19.30
2019-01-23T19:39:43.634Z,19.03
2019-01-23T19:42:14.574Z,19.87
2019-01-23T19:44:45.485Z,19.07
2019-01-23T19:47:15.978Z,19.80
2019-01-23T19:49:46.834Z,18.20
2019-01-23T19:52:18.165Z,17.17
2019-01-23T19:54:48.593Z,19.80
2019-01-23T19:57:19.454Z,17.40
2019-01-23T19:59:49.725Z,17.67
2019-01-23T20:02:20.290Z,17.77
2019-01-23T20:04:50.994Z,18.03
2019-01-23T20:07:21.663Z,17.33
2019-01-23T20:09:52.354Z,17.57
2019-01-23T20:12:22.469Z,19.00
2019-01-23T20:14:58.548Z,17.97
2019-01-23T20:17:31.246Z,19.10
2019-01-23T20:20:02.811Z,18.10
2019-01-23T20:22:33.768Z,18.73
2019-01-23T20:25:04.016Z,17.73
2019-01-23T20:27:34.861Z,17.37
2019-01-23T20:30:12.691Z,18.17
2019-01-23T20:32:43.473Z,18.30
2019-01-23T20:35:14.044Z,19.93
2019-01-23T20:37:45.421Z,20.60
2019-01-23T20:40:16.269Z,20.17
2019-01-23T20:42:49.096Z,21.30
2019-01-23T20:45:19.085Z,20.37
2019-01-23T20:47:49.385Z,21.73
2019-01-23T20:50:26.434Z,21.90
2019-01-23T20:52:56.609Z,21.77
2019-01-23T20:55:27.209Z,24.30
2019-01-23T20:57:57.653Z,23.93
2019-01-23T21:00:30.927Z,23.93
2019-01-23T21:03:00.757Z,24.20
2019-01-23T21:05:31.848Z,23.60
2019-01-23T21:08:03.386Z,24.60
2019-01-23T21:10:33.551Z,23.50
2019-01-23T21:13:04.546Z,23.40
2019-01-23T21:15:35.894Z,22.80
2019-01-23T21:18:08.302Z,23.80
2019-01-23T21:20:40.746Z,23.50
2019-01-23T21:23:13.452Z,22.30
2019-01-23T21:25:43.160Z,22.17
2019-01-23T21:28:12.991Z,22.00
2019-01-23T21:30:43.620Z,22.87
2019-01-23T21:33:14.712Z,21.63
2019-01-23T21:35:44.164Z,22.33
2019-01-23T21:38:13.563Z,19.97
2019-01-23T21:40:43.257Z,21.87
2019-01-23T21:43:12.990Z,21.03
2019-01-23T21:45:42.536Z,23.03
2019-01-23T21:48:11.161Z,22.43
2019-01-23T21:50:42.055Z,21.87
2019-01-23T21:53:11.617Z,23.20
2019-01-23T21:55:40.911Z,22.83
2019-01-23T21:58:11.028Z,22.50
2019-01-23T22:00:49.643Z,23.23
2019-01-23T22:03:18.481Z,23.40
2019-01-23T22:05:47.734Z,23.50
2019-01-23T22:08:16.604Z,23.97
2019-01-23T22:10:46.022Z,22.43
2019-01-23T22:13:14.547Z,23.27
2019-01-23T22:15:44.638Z,25.00
2019-01-23T22:18:13.516Z,23.73
2019-01-23T22:20:42.062Z,23.60
2019-01-23T22:23:10.860Z,22.80
2019-01-23T22:25:38.701Z,23.67
2019-01-23T22:28:06.894Z,22.57
2019-01-23T22:30:35.026Z,22.70
2019-01-23T22:33:03.594Z,25.27
2019-01-23T22:35:32.507Z,23.00
2019-01-23T22:38:01.813Z,22.47
2019-01-23T22:40:29.758Z,22.10
2019-01-23T22:42:58.112Z,23.00
2019-01-23T22:45:27.680Z,23.13
2019-01-23T22:47:56.091Z,23.10
2019-01-23T22:50:28.723Z,22.47
2019-01-23T22:52:56.620Z,23.33
2019-01-23T22:55:24.462Z,23.70
2019-01-23T22:57:52.675Z,22.90
2019-01-23T23:00:58.723Z,25.10
2019-01-23T23:03:29.643Z,23.23
2019-01-23T23:05:58.186Z,23.77
2019-01-23T23:08:27.252Z,22.57
2019-01-23T23:10:55.416Z,23.10
2019-01-23T23:13:25.134Z,23.67
2019-01-23T23:15:53.333Z,23.67
2019-01-23T23:18:21.494Z,23.23
2019-01-23T23:20:49.759Z,23.53
2019-01-23T23:23:17.579Z,24.50
2019-01-23T23:25:46.174Z,24.57
2019-01-23T23:28:14.159Z,24.57
2019-01-23T23:30:43.252Z,25.37
2019-01-23T23:33:11.391Z,23.00
2019-01-23T23:35:39.957Z,25.93
2019-01-23T23:38:08.436Z,24.70
2019-01-23T23:40:36.358Z,24.53
2019-01-23T23:43:04.428Z,25.93
2019-01-23T23:45:32.474Z,23.33
2019-01-23T23:48:00.301Z,25.70
2019-01-23T23:50:28.935Z,25.43
2019-01-23T23:52:56.850Z,25.00
2019-01-23T23:55:26.760Z,24.50
2019-01-23T23:57:54.997Z,24.70
